sensor_id;sensor_type;location;lat;lon;timestamp;temperature;humidity
2158;DHT22;41972;48.774;9.282;2023-08-12T00:00:19;18.40;99.90
2158;DHT22;41972;48.774;9.282;2023-08-12T00:02:45;18.50;99.90
2158;DHT22;41972;48.774;9.282;2023-08-12T00:05:11;18.50;99.90
2158;DHT22;41972;48.774;9.282;2023-08-12T00:07:38;18.50;99.90
2158;DHT22;41972;48.774;9.282;2023-08-12T00:10:04;18.50;99.90
2158;DHT22;41972;48.774;9.282;2023-08-12T00:12:34;18.50;99.90
2158;DHT22;41972;48.774;9.282;2023-08-12T00:15:00;18.50;99.90
2158;DHT22;41972;48.774;9.282;2023-08-12T00:17:26;18.30;99.90
2158;DHT22;41972;48.774;9.282;2023-08-12T00:19:51;18.40;99.90
2158;DHT22;41972;48.774;9.282;2023-08-12T00:22:17;18.40;99.90
2158;DHT22;41972;48.774;9.282;2023-08-12T00:24:43;18.30;99.90
2158;DHT22;41972;48.774;9.282;2023-08-12T00:27:08;18.40;99.90
2158;DHT22;41972;48.774;9.282;2023-08-12T00:29:35;18.50;99.90
2158;DHT22;41972;48.774;9.282;2023-08-12T00:32:01;18.60;99.90
2158;DHT22;41972;48.774;9.282;2023-08-12T00:34:26;18.30;99.90
2158;DHT22;41972;48.774;9.282;2023-08-12T00:36:52;18.40;99.90
2158;DHT22;41972;48.774;9.282;2023-08-12T00:39:17;18.50;99.90
2158;DHT22;41972;48.774;9.282;2023-08-12T00:41:43;18.50;99.90
2158;DHT22;41972;48.774;9.282;2023-08-12T00:44:09;18.50;99.90
2158;DHT22;41972;48.774;9.282;2023-08-12T00:46:35;18.50;99.90
2158;DHT22;41972;48.774;9.282;2023-08-12T00:49:03;18.50;99.90
2158;DHT22;41972;48.774;9.282;2023-08-12T00:51:29;18.50;99.90
2158;DHT22;41972;48.774;9.282;2023-08-12T00:53:54;18.40;99.90
2158;DHT22;41972;48.774;9.282;2023-08-12T00:56:22;18.30;99.90
2158;DHT22;41972;48.774;9.282;2023-08-12T00:58:48;18.40;99.90
2158;DHT22;41972;48.774;9.282;2023-08-12T01:01:13;18.40;99.90
2158;DHT22;41972;48.774;9.282;2023-08-12T01:03:39;18.40;99.90
2158;DHT22;41972;48.774;9.282;2023-08-12T01:06:06;18.20;99.90
2158;DHT22;41972;48.774;9.282;2023-08-12T01:08:32;18.10;99.90
2158;DHT22;41972;48.774;9.282;2023-08-12T01:11:25;18.10;99.90
2158;DHT22;41972;48.774;9.282;2023-08-12T01:13:55;18.10;99.90
2158;DHT22;41972;48.774;9.282;2023-08-12T01:16:23;18.10;99.90
2158;DHT22;41972;48.774;9.282;2023-08-12T01:18:51;18.20;99.90
2158;DHT22;41972;48.774;9.282;2023-08-12T01:21:17;18.10;99.90
2158;DHT22;41972;48.774;9.282;2023-08-12T01:23:46;18.20;99.90
2158;DHT22;41972;48.774;9.282;2023-08-12T01:26:12;18.10;99.90
2158;DHT22;41972;48.774;9.282;2023-08-12T01:28:38;18.20;99.90
2158;DHT22;41972;48.774;9.282;2023-08-12T01:31:20;18.20;99.90
2158;DHT22;41972;48.774;9.282;2023-08-12T01:34:04;18.40;99.90
2158;DHT22;41972;48.774;9.282;2023-08-12T01:36:34;18.50;99.90
2158;DHT22;41972;48.774;9.282;2023-08-12T01:39:01;18.70;99.90
2158;DHT22;41972;48.774;9.282;2023-08-12T01:41:27;18.70;99.90
2158;DHT22;41972;48.774;9.282;2023-08-12T01:43:53;18.60;99.90
2158;DHT22;41972;48.774;9.282;2023-08-12T01:46:19;18.60;99.90
2158;DHT22;41972;48.774;9.282;2023-08-12T01:48:44;18.50;99.90
2158;DHT22;41972;48.774;9.282;2023-08-12T01:51:10;18.50;99.90
2158;DHT22;41972;48.774;9.282;2023-08-12T01:53:36;18.70;99.90
2158;DHT22;41972;48.774;9.282;2023-08-12T01:56:02;18.70;99.90
2158;DHT22;41972;48.774;9.282;2023-08-12T01:58:28;18.90;99.90
2158;DHT22;41972;48.774;9.282;2023-08-12T02:00:54;19.00;99.90
2158;DHT22;41972;48.774;9.282;2023-08-12T02:03:19;19.10;99.90
2158;DHT22;41972;48.774;9.282;2023-08-12T02:05:45;19.10;99.90
2158;DHT22;41972;48.774;9.282;2023-08-12T02:08:11;19.00;99.90
2158;DHT22;41972;48.774;9.282;2023-08-12T02:10:36;18.90;99.90
2158;DHT22;41972;48.774;9.282;2023-08-12T02:13:02;19.00;99.90
2158;DHT22;41972;48.774;9.282;2023-08-12T02:15:28;19.00;99.90
2158;DHT22;41972;48.774;9.282;2023-08-12T02:17:55;19.10;99.90
2158;DHT22;41972;48.774;9.282;2023-08-12T02:20:21;19.20;99.90
2158;DHT22;41972;48.774;9.282;2023-08-12T02:22:46;19.40;99.90
2158;DHT22;41972;48.774;9.282;2023-08-12T02:25:12;19.40;99.90
2158;DHT22;41972;48.774;9.282;2023-08-12T02:27:39;19.40;99.90
2158;DHT22;41972;48.774;9.282;2023-08-12T02:30:05;19.40;99.90
2158;DHT22;41972;48.774;9.282;2023-08-12T02:32:30;19.40;99.90
2158;DHT22;41972;48.774;9.282;2023-08-12T02:34:56;19.60;99.90
2158;DHT22;41972;48.774;9.282;2023-08-12T02:37:21;19.80;99.90
2158;DHT22;41972;48.774;9.282;2023-08-12T02:39:47;19.90;99.90
2158;DHT22;41972;48.774;9.282;2023-08-12T02:42:12;19.90;99.90
2158;DHT22;41972;48.774;9.282;2023-08-12T02:44:38;19.90;99.90
2158;DHT22;41972;48.774;9.282;2023-08-12T02:47:04;19.80;99.90
2158;DHT22;41972;48.774;9.282;2023-08-12T02:49:29;19.80;99.90
2158;DHT22;41972;48.774;9.282;2023-08-12T02:51:55;19.90;99.90
2158;DHT22;41972;48.774;9.282;2023-08-12T02:54:20;19.90;99.90
2158;DHT22;41972;48.774;9.282;2023-08-12T02:56:46;19.90;99.90
2158;DHT22;41972;48.774;9.282;2023-08-12T02:59:11;20.00;99.90
2158;DHT22;41972;48.774;9.282;2023-08-12T03:01:37;20.00;99.90
2158;DHT22;41972;48.774;9.282;2023-08-12T03:04:03;20.10;99.90
2158;DHT22;41972;48.774;9.282;2023-08-12T03:06:28;20.10;99.90
2158;DHT22;41972;48.774;9.282;2023-08-12T03:08:54;20.20;99.90
2158;DHT22;41972;48.774;9.282;2023-08-12T03:11:20;20.10;99.90
2158;DHT22;41972;48.774;9.282;2023-08-12T03:13:45;20.10;99.90
2158;DHT22;41972;48.774;9.282;2023-08-12T03:16:14;20.10;99.90
2158;DHT22;41972;48.774;9.282;2023-08-12T03:18:40;20.00;99.90
2158;DHT22;41972;48.774;9.282;2023-08-12T03:21:07;20.00;99.90
2158;DHT22;41972;48.774;9.282;2023-08-12T03:23:37;20.20;99.90
2158;DHT22;41972;48.774;9.282;2023-08-12T03:26:03;20.10;99.90
2158;DHT22;41972;48.774;9.282;2023-08-12T03:28:30;20.20;99.90
2158;DHT22;41972;48.774;9.282;2023-08-12T03:30:55;20.30;99.90
2158;DHT22;41972;48.774;9.282;2023-08-12T03:33:21;20.40;99.90
2158;DHT22;41972;48.774;9.282;2023-08-12T03:35:47;20.30;99.90
2158;DHT22;41972;48.774;9.282;2023-08-12T03:38:13;20.30;99.90
2158;DHT22;41972;48.774;9.282;2023-08-12T03:40:39;20.10;99.90
2158;DHT22;41972;48.774;9.282;2023-08-12T03:43:05;20.20;99.90
2158;DHT22;41972;48.774;9.282;2023-08-12T03:45:30;20.20;99.90
2158;DHT22;41972;48.774;9.282;2023-08-12T03:47:56;20.30;99.90
2158;DHT22;41972;48.774;9.282;2023-08-12T03:50:21;20.30;99.90
2158;DHT22;41972;48.774;9.282;2023-08-12T03:52:47;20.30;99.90
2158;DHT22;41972;48.774;9.282;2023-08-12T03:55:13;20.20;99.90
2158;DHT22;41972;48.774;9.282;2023-08-12T03:57:38;20.20;99.90
2158;DHT22;41972;48.774;9.282;2023-08-12T04:00:04;20.20;99.90
2158;DHT22;41972;48.774;9.282;2023-08-12T04:02:32;20.30;99.90
2158;DHT22;41972;48.774;9.282;2023-08-12T04:04:58;20.30;99.90
2158;DHT22;41972;48.774;9.282;2023-08-12T04:07:23;20.10;99.90
2158;DHT22;41972;48.774;9.282;2023-08-12T04:09:49;20.20;99.90
2158;DHT22;41972;48.774;9.282;2023-08-12T04:12:15;20.20;99.90
2158;DHT22;41972;48.774;9.282;2023-08-12T04:14:40;20.20;99.90
2158;DHT22;41972;48.774;9.282;2023-08-12T04:17:06;20.30;99.90
2158;DHT22;41972;48.774;9.282;2023-08-12T04:19:31;20.30;99.90
2158;DHT22;41972;48.774;9.282;2023-08-12T04:21:57;20.40;99.90
2158;DHT22;41972;48.774;9.282;2023-08-12T04:24:23;20.50;99.90
2158;DHT22;41972;48.774;9.282;2023-08-12T04:26:48;20.40;99.90
2158;DHT22;41972;48.774;9.282;2023-08-12T04:29:14;20.50;99.90
2158;DHT22;41972;48.774;9.282;2023-08-12T04:31:40;20.50;99.90
2158;DHT22;41972;48.774;9.282;2023-08-12T04:34:06;20.60;99.90
2158;DHT22;41972;48.774;9.282;2023-08-12T04:36:32;20.80;99.90
2158;DHT22;41972;48.774;9.282;2023-08-12T04:38:57;20.80;99.90
2158;DHT22;41972;48.774;9.282;2023-08-12T04:41:23;20.80;99.90
2158;DHT22;41972;48.774;9.282;2023-08-12T04:43:49;20.60;99.90
2158;DHT22;41972;48.774;9.282;2023-08-12T04:46:15;20.30;99.90
2158;DHT22;41972;48.774;9.282;2023-08-12T04:48:40;20.40;99.90
2158;DHT22;41972;48.774;9.282;2023-08-12T04:51:06;20.30;99.90
2158;DHT22;41972;48.774;9.282;2023-08-12T04:53:32;20.10;99.90
2158;DHT22;41972;48.774;9.282;2023-08-12T04:55:58;20.20;99.90
2158;DHT22;41972;48.774;9.282;2023-08-12T04:58:23;20.30;99.90
2158;DHT22;41972;48.774;9.282;2023-08-12T05:00:50;20.00;99.90
2158;DHT22;41972;48.774;9.282;2023-08-12T05:03:17;20.00;99.90
2158;DHT22;41972;48.774;9.282;2023-08-12T05:05:42;20.20;99.90
2158;DHT22;41972;48.774;9.282;2023-08-12T05:08:08;20.10;99.90
2158;DHT22;41972;48.774;9.282;2023-08-12T05:10:34;20.10;99.90
2158;DHT22;41972;48.774;9.282;2023-08-12T05:12:59;20.10;99.90
2158;DHT22;41972;48.774;9.282;2023-08-12T05:15:25;20.00;99.90
2158;DHT22;41972;48.774;9.282;2023-08-12T05:17:51;19.80;99.90
2158;DHT22;41972;48.774;9.282;2023-08-12T05:20:16;19.70;99.90
2158;DHT22;41972;48.774;9.282;2023-08-12T05:22:42;20.00;99.90
2158;DHT22;41972;48.774;9.282;2023-08-12T05:25:08;20.10;99.90
2158;DHT22;41972;48.774;9.282;2023-08-12T05:27:33;20.10;99.90
2158;DHT22;41972;48.774;9.282;2023-08-12T05:29:59;20.10;99.90
2158;DHT22;41972;48.774;9.282;2023-08-12T05:32:25;20.30;99.90
2158;DHT22;41972;48.774;9.282;2023-08-12T05:34:52;20.60;99.90
2158;DHT22;41972;48.774;9.282;2023-08-12T05:37:18;20.90;99.90
2158;DHT22;41972;48.774;9.282;2023-08-12T05:39:43;21.10;99.90
2158;DHT22;41972;48.774;9.282;2023-08-12T05:42:09;21.10;99.90
2158;DHT22;41972;48.774;9.282;2023-08-12T05:44:34;21.20;99.90
2158;DHT22;41972;48.774;9.282;2023-08-12T05:47:00;21.30;99.90
2158;DHT22;41972;48.774;9.282;2023-08-12T05:49:25;21.30;99.90
2158;DHT22;41972;48.774;9.282;2023-08-12T05:51:51;20.70;99.90
2158;DHT22;41972;48.774;9.282;2023-08-12T05:54:17;20.50;99.90
2158;DHT22;41972;48.774;9.282;2023-08-12T05:56:42;20.80;99.90
2158;DHT22;41972;48.774;9.282;2023-08-12T05:59:08;21.20;99.90
2158;DHT22;41972;48.774;9.282;2023-08-12T06:01:33;21.40;99.90
2158;DHT22;41972;48.774;9.282;2023-08-12T06:03:59;21.50;99.90
2158;DHT22;41972;48.774;9.282;2023-08-12T06:06:24;21.60;99.90
2158;DHT22;41972;48.774;9.282;2023-08-12T06:08:50;21.70;99.90
2158;DHT22;41972;48.774;9.282;2023-08-12T06:11:15;21.80;99.90
2158;DHT22;41972;48.774;9.282;2023-08-12T06:13:41;21.80;99.90
2158;DHT22;41972;48.774;9.282;2023-08-12T06:16:06;22.10;99.90
2158;DHT22;41972;48.774;9.282;2023-08-12T06:18:32;22.40;99.90
2158;DHT22;41972;48.774;9.282;2023-08-12T06:20:58;22.70;99.90
2158;DHT22;41972;48.774;9.282;2023-08-12T06:23:24;22.80;99.90
2158;DHT22;41972;48.774;9.282;2023-08-12T06:25:49;22.80;99.90
2158;DHT22;41972;48.774;9.282;2023-08-12T06:28:15;22.60;99.90
2158;DHT22;41972;48.774;9.282;2023-08-12T06:30:45;22.20;99.90
2158;DHT22;41972;48.774;9.282;2023-08-12T06:33:11;22.20;99.90
2158;DHT22;41972;48.774;9.282;2023-08-12T06:35:36;22.20;99.90
2158;DHT22;41972;48.774;9.282;2023-08-12T06:38:02;21.80;99.90
2158;DHT22;41972;48.774;9.282;2023-08-12T06:40:27;22.00;99.90
2158;DHT22;41972;48.774;9.282;2023-08-12T06:42:53;22.10;99.90
2158;DHT22;41972;48.774;9.282;2023-08-12T06:45:19;22.20;99.90
2158;DHT22;41972;48.774;9.282;2023-08-12T06:47:44;22.10;99.90
2158;DHT22;41972;48.774;9.282;2023-08-12T06:50:10;22.10;99.90
2158;DHT22;41972;48.774;9.282;2023-08-12T06:52:35;22.40;99.90
2158;DHT22;41972;48.774;9.282;2023-08-12T06:55:01;22.90;99.90
2158;DHT22;41972;48.774;9.282;2023-08-12T06:57:27;23.60;99.90
2158;DHT22;41972;48.774;9.282;2023-08-12T06:59:52;23.50;99.90
2158;DHT22;41972;48.774;9.282;2023-08-12T07:02:18;24.20;99.90
2158;DHT22;41972;48.774;9.282;2023-08-12T07:04:44;25.00;99.90
2158;DHT22;41972;48.774;9.282;2023-08-12T07:07:09;25.50;99.90
2158;DHT22;41972;48.774;9.282;2023-08-12T07:09:35;28.20;99.90
2158;DHT22;41972;48.774;9.282;2023-08-12T07:12:00;29.30;99.90
2158;DHT22;41972;48.774;9.282;2023-08-12T07:14:27;31.60;99.90
2158;DHT22;41972;48.774;9.282;2023-08-12T07:16:53;32.10;99.90
2158;DHT22;41972;48.774;9.282;2023-08-12T07:19:19;31.40;99.90
2158;DHT22;41972;48.774;9.282;2023-08-12T07:21:45;30.80;99.90
2158;DHT22;41972;48.774;9.282;2023-08-12T07:24:10;30.90;99.90
2158;DHT22;41972;48.774;9.282;2023-08-12T07:26:36;31.10;99.90
2158;DHT22;41972;48.774;9.282;2023-08-12T07:29:01;32.00;99.90
2158;DHT22;41972;48.774;9.282;2023-08-12T07:31:27;33.50;97.50
2158;DHT22;41972;48.774;9.282;2023-08-12T07:33:53;31.00;99.90
2158;DHT22;41972;48.774;9.282;2023-08-12T07:36:18;31.80;94.90
2158;DHT22;41972;48.774;9.282;2023-08-12T07:38:44;31.40;98.40
2158;DHT22;41972;48.774;9.282;2023-08-12T07:41:09;30.60;99.90
2158;DHT22;41972;48.774;9.282;2023-08-12T07:43:35;32.50;99.90
2158;DHT22;41972;48.774;9.282;2023-08-12T07:46:00;33.00;99.90
2158;DHT22;41972;48.774;9.282;2023-08-12T07:48:26;33.70;99.90
2158;DHT22;41972;48.774;9.282;2023-08-12T07:50:58;33.20;99.90
2158;DHT22;41972;48.774;9.282;2023-08-12T07:53:24;32.30;99.90
2158;DHT22;41972;48.774;9.282;2023-08-12T07:55:50;34.90;99.90
2158;DHT22;41972;48.774;9.282;2023-08-12T07:58:16;33.90;99.90
2158;DHT22;41972;48.774;9.282;2023-08-12T08:00:42;32.60;99.90
2158;DHT22;41972;48.774;9.282;2023-08-12T08:03:07;33.20;99.90
2158;DHT22;41972;48.774;9.282;2023-08-12T08:05:33;33.00;99.90
2158;DHT22;41972;48.774;9.282;2023-08-12T08:07:58;33.60;99.90
2158;DHT22;41972;48.774;9.282;2023-08-12T08:10:24;34.70;99.90
2158;DHT22;41972;48.774;9.282;2023-08-12T08:12:49;34.90;99.90
2158;DHT22;41972;48.774;9.282;2023-08-12T08:15:15;37.20;99.90
2158;DHT22;41972;48.774;9.282;2023-08-12T08:17:41;34.70;99.90
2158;DHT22;41972;48.774;9.282;2023-08-12T08:20:06;36.60;99.90
2158;DHT22;41972;48.774;9.282;2023-08-12T08:22:32;35.80;99.90
2158;DHT22;41972;48.774;9.282;2023-08-12T08:24:58;36.70;99.90
2158;DHT22;41972;48.774;9.282;2023-08-12T08:27:24;37.80;99.90
2158;DHT22;41972;48.774;9.282;2023-08-12T08:29:50;36.20;99.90
2158;DHT22;41972;48.774;9.282;2023-08-12T08:32:15;36.50;99.90
2158;DHT22;41972;48.774;9.282;2023-08-12T08:34:42;37.70;99.90
2158;DHT22;41972;48.774;9.282;2023-08-12T08:37:07;36.00;99.90
2158;DHT22;41972;48.774;9.282;2023-08-12T08:39:33;34.10;99.90
2158;DHT22;41972;48.774;9.282;2023-08-12T08:41:59;35.50;99.90
2158;DHT22;41972;48.774;9.282;2023-08-12T08:44:29;35.80;99.90
2158;DHT22;41972;48.774;9.282;2023-08-12T08:46:56;38.40;99.90
2158;DHT22;41972;48.774;9.282;2023-08-12T08:49:24;37.40;99.90
2158;DHT22;41972;48.774;9.282;2023-08-12T08:51:51;38.50;99.90
2158;DHT22;41972;48.774;9.282;2023-08-12T08:54:19;39.40;99.90
2158;DHT22;41972;48.774;9.282;2023-08-12T08:56:44;41.80;99.90
2158;DHT22;41972;48.774;9.282;2023-08-12T08:59:10;41.90;99.90
2158;DHT22;41972;48.774;9.282;2023-08-12T09:01:36;37.10;99.90
2158;DHT22;41972;48.774;9.282;2023-08-12T09:04:03;35.60;99.90
2158;DHT22;41972;48.774;9.282;2023-08-12T09:06:29;37.50;99.90
2158;DHT22;41972;48.774;9.282;2023-08-12T09:08:56;36.10;99.90
2158;DHT22;41972;48.774;9.282;2023-08-12T09:11:21;37.60;99.90
2158;DHT22;41972;48.774;9.282;2023-08-12T09:13:48;36.20;99.90
2158;DHT22;41972;48.774;9.282;2023-08-12T09:16:14;35.80;99.90
2158;DHT22;41972;48.774;9.282;2023-08-12T09:18:42;35.20;99.90
2158;DHT22;41972;48.774;9.282;2023-08-12T09:21:08;36.00;99.90
2158;DHT22;41972;48.774;9.282;2023-08-12T09:23:44;35.80;99.90
2158;DHT22;41972;48.774;9.282;2023-08-12T09:26:14;35.60;99.90
2158;DHT22;41972;48.774;9.282;2023-08-12T09:28:41;35.30;99.90
2158;DHT22;41972;48.774;9.282;2023-08-12T09:31:07;35.30;99.90
2158;DHT22;41972;48.774;9.282;2023-08-12T09:33:32;36.60;99.90
2158;DHT22;41972;48.774;9.282;2023-08-12T09:36:03;34.50;99.90
2158;DHT22;41972;48.774;9.282;2023-08-12T09:38:30;34.30;99.90
2158;DHT22;41972;48.774;9.282;2023-08-12T09:40:56;36.40;99.90
2158;DHT22;41972;48.774;9.282;2023-08-12T09:43:27;36.20;99.90
2158;DHT22;41972;48.774;9.282;2023-08-12T09:45:56;37.80;99.90
2158;DHT22;41972;48.774;9.282;2023-08-12T09:48:23;40.20;99.90
2158;DHT22;41972;48.774;9.282;2023-08-12T09:50:49;38.60;99.90
2158;DHT22;41972;48.774;9.282;2023-08-12T09:53:15;38.90;99.90
2158;DHT22;41972;48.774;9.282;2023-08-12T09:55:42;36.40;99.90
2158;DHT22;41972;48.774;9.282;2023-08-12T09:58:10;36.90;99.90
2158;DHT22;41972;48.774;9.282;2023-08-12T10:00:36;37.30;99.90
2158;DHT22;41972;48.774;9.282;2023-08-12T10:03:02;38.60;99.90
2158;DHT22;41972;48.774;9.282;2023-08-12T10:05:31;35.40;99.90
2158;DHT22;41972;48.774;9.282;2023-08-12T10:07:58;34.10;99.90
2158;DHT22;41972;48.774;9.282;2023-08-12T10:10:25;33.20;99.90
2158;DHT22;41972;48.774;9.282;2023-08-12T10:12:51;31.90;99.90
2158;DHT22;41972;48.774;9.282;2023-08-12T10:15:17;32.00;99.90
2158;DHT22;41972;48.774;9.282;2023-08-12T10:17:44;31.20;99.90
2158;DHT22;41972;48.774;9.282;2023-08-12T10:20:13;30.50;99.90
2158;DHT22;41972;48.774;9.282;2023-08-12T10:22:40;30.40;99.90
2158;DHT22;41972;48.774;9.282;2023-08-12T10:25:08;30.00;99.90
2158;DHT22;41972;48.774;9.282;2023-08-12T10:27:34;29.90;99.90
2158;DHT22;41972;48.774;9.282;2023-08-12T10:30:05;30.10;99.90
2158;DHT22;41972;48.774;9.282;2023-08-12T10:32:31;29.80;99.90
2158;DHT22;41972;48.774;9.282;2023-08-12T10:34:58;29.70;99.90
2158;DHT22;41972;48.774;9.282;2023-08-12T10:37:25;30.10;99.90
2158;DHT22;41972;48.774;9.282;2023-08-12T10:39:54;30.30;99.90
2158;DHT22;41972;48.774;9.282;2023-08-12T10:42:48;30.90;99.90
2158;DHT22;41972;48.774;9.282;2023-08-12T10:45:18;31.80;99.90
2158;DHT22;41972;48.774;9.282;2023-08-12T10:50:34;31.10;99.90
2158;DHT22;41972;48.774;9.282;2023-08-12T10:53:26;31.00;99.90
2158;DHT22;41972;48.774;9.282;2023-08-12T10:55:57;31.10;99.90
2158;DHT22;41972;48.774;9.282;2023-08-12T10:59:00;31.50;99.90
2158;DHT22;41972;48.774;9.282;2023-08-12T11:01:19;31.70;99.90
2158;DHT22;41972;48.774;9.282;2023-08-12T11:03:45;32.30;99.90
2158;DHT22;41972;48.774;9.282;2023-08-12T11:06:11;32.10;99.90
2158;DHT22;41972;48.774;9.282;2023-08-12T11:08:45;32.20;99.90
2158;DHT22;41972;48.774;9.282;2023-08-12T11:11:33;32.00;99.90
2158;DHT22;41972;48.774;9.282;2023-08-12T11:13:59;32.40;99.90
2158;DHT22;41972;48.774;9.282;2023-08-12T11:16:34;31.70;99.90
2158;DHT22;41972;48.774;9.282;2023-08-12T11:19:00;32.60;99.90
2158;DHT22;41972;48.774;9.282;2023-08-12T11:21:26;32.70;99.90
2158;DHT22;41972;48.774;9.282;2023-08-12T11:23:55;32.60;99.90
2158;DHT22;41972;48.774;9.282;2023-08-12T11:26:23;32.30;99.90
2158;DHT22;41972;48.774;9.282;2023-08-12T11:28:49;31.20;99.90
2158;DHT22;41972;48.774;9.282;2023-08-12T11:31:15;31.30;99.90
2158;DHT22;41972;48.774;9.282;2023-08-12T11:33:41;31.40;99.90
2158;DHT22;41972;48.774;9.282;2023-08-12T11:36:07;31.30;99.90
2158;DHT22;41972;48.774;9.282;2023-08-12T11:38:33;31.30;99.90
2158;DHT22;41972;48.774;9.282;2023-08-12T11:41:00;31.90;99.90
2158;DHT22;41972;48.774;9.282;2023-08-12T11:43:28;31.50;99.90
2158;DHT22;41972;48.774;9.282;2023-08-12T11:45:55;31.60;99.90
2158;DHT22;41972;48.774;9.282;2023-08-12T11:48:21;31.70;99.90
2158;DHT22;41972;48.774;9.282;2023-08-12T11:50:49;31.90;99.90
2158;DHT22;41972;48.774;9.282;2023-08-12T11:53:15;31.10;99.90
2158;DHT22;41972;48.774;9.282;2023-08-12T11:55:41;31.10;99.90
2158;DHT22;41972;48.774;9.282;2023-08-12T11:58:07;31.70;99.90
2158;DHT22;41972;48.774;9.282;2023-08-12T12:00:33;32.10;99.90
2158;DHT22;41972;48.774;9.282;2023-08-12T12:03:00;32.10;99.90
2158;DHT22;41972;48.774;9.282;2023-08-12T12:05:28;32.10;99.90
2158;DHT22;41972;48.774;9.282;2023-08-12T12:07:55;31.50;99.90
2158;DHT22;41972;48.774;9.282;2023-08-12T12:12:55;31.20;99.90
2158;DHT22;41972;48.774;9.282;2023-08-12T12:15:21;30.60;99.90
2158;DHT22;41972;48.774;9.282;2023-08-12T12:17:47;30.60;99.90
2158;DHT22;41972;48.774;9.282;2023-08-12T12:20:14;29.00;99.90
2158;DHT22;41972;48.774;9.282;2023-08-12T12:22:42;27.50;99.90
2158;DHT22;41972;48.774;9.282;2023-08-12T12:25:12;26.20;99.90
2158;DHT22;41972;48.774;9.282;2023-08-12T12:27:39;25.70;99.90
2158;DHT22;41972;48.774;9.282;2023-08-12T12:30:08;25.90;99.90
2158;DHT22;41972;48.774;9.282;2023-08-12T12:32:34;25.00;99.90
2158;DHT22;41972;48.774;9.282;2023-08-12T12:35:00;23.90;99.90
2158;DHT22;41972;48.774;9.282;2023-08-12T12:37:25;23.50;99.90
2158;DHT22;41972;48.774;9.282;2023-08-12T12:39:51;23.50;99.90
2158;DHT22;41972;48.774;9.282;2023-08-12T12:42:17;23.00;99.90
2158;DHT22;41972;48.774;9.282;2023-08-12T12:44:42;23.00;99.90
2158;DHT22;41972;48.774;9.282;2023-08-12T12:47:08;23.00;99.90
2158;DHT22;41972;48.774;9.282;2023-08-12T12:49:35;23.30;99.90
2158;DHT22;41972;48.774;9.282;2023-08-12T12:52:01;23.00;99.90
2158;DHT22;41972;48.774;9.282;2023-08-12T12:54:27;22.90;99.90
2158;DHT22;41972;48.774;9.282;2023-08-12T12:56:52;22.90;99.90
2158;DHT22;41972;48.774;9.282;2023-08-12T12:59:18;23.10;99.90
2158;DHT22;41972;48.774;9.282;2023-08-12T13:01:45;22.90;99.90
2158;DHT22;41972;48.774;9.282;2023-08-12T13:04:11;23.30;99.90
2158;DHT22;41972;48.774;9.282;2023-08-12T13:06:36;23.00;99.90
2158;DHT22;41972;48.774;9.282;2023-08-12T13:09:02;22.80;99.90
2158;DHT22;41972;48.774;9.282;2023-08-12T13:11:28;22.60;99.90
2158;DHT22;41972;48.774;9.282;2023-08-12T13:13:54;22.10;99.90
2158;DHT22;41972;48.774;9.282;2023-08-12T13:16:21;22.10;99.90
2158;DHT22;41972;48.774;9.282;2023-08-12T13:18:46;22.30;99.90
2158;DHT22;41972;48.774;9.282;2023-08-12T13:21:12;22.40;99.90
2158;DHT22;41972;48.774;9.282;2023-08-12T13:23:37;22.40;99.90
2158;DHT22;41972;48.774;9.282;2023-08-12T13:26:03;22.40;99.90
2158;DHT22;41972;48.774;9.282;2023-08-12T13:28:29;22.50;99.90
2158;DHT22;41972;48.774;9.282;2023-08-12T13:30:55;22.80;99.90
2158;DHT22;41972;48.774;9.282;2023-08-12T13:33:21;23.00;99.90
2158;DHT22;41972;48.774;9.282;2023-08-12T13:35:46;22.60;99.90
2158;DHT22;41972;48.774;9.282;2023-08-12T13:38:12;22.40;99.90
2158;DHT22;41972;48.774;9.282;2023-08-12T13:40:37;22.60;99.90
2158;DHT22;41972;48.774;9.282;2023-08-12T13:43:03;22.80;99.90
2158;DHT22;41972;48.774;9.282;2023-08-12T13:45:28;23.10;99.90
2158;DHT22;41972;48.774;9.282;2023-08-12T13:47:54;23.10;99.90
2158;DHT22;41972;48.774;9.282;2023-08-12T13:50:20;23.20;99.90
2158;DHT22;41972;48.774;9.282;2023-08-12T13:52:46;23.50;99.90
2158;DHT22;41972;48.774;9.282;2023-08-12T13:55:12;23.60;99.90
2158;DHT22;41972;48.774;9.282;2023-08-12T13:57:38;23.90;99.90
2158;DHT22;41972;48.774;9.282;2023-08-12T14:00:04;24.30;99.90
2158;DHT22;41972;48.774;9.282;2023-08-12T14:02:35;24.80;99.90
2158;DHT22;41972;48.774;9.282;2023-08-12T14:05:03;25.30;99.90
2158;DHT22;41972;48.774;9.282;2023-08-12T14:07:30;25.80;99.90
2158;DHT22;41972;48.774;9.282;2023-08-12T14:09:56;26.30;99.90
2158;DHT22;41972;48.774;9.282;2023-08-12T14:12:21;26.60;99.90
2158;DHT22;41972;48.774;9.282;2023-08-12T14:14:47;26.20;99.90
2158;DHT22;41972;48.774;9.282;2023-08-12T14:17:13;26.70;99.90
2158;DHT22;41972;48.774;9.282;2023-08-12T14:19:40;25.90;99.90
2158;DHT22;41972;48.774;9.282;2023-08-12T14:22:07;25.60;99.90
2158;DHT22;41972;48.774;9.282;2023-08-12T14:24:33;25.60;99.90
2158;DHT22;41972;48.774;9.282;2023-08-12T14:26:58;25.60;99.90
2158;DHT22;41972;48.774;9.282;2023-08-12T14:29:24;26.10;99.90
2158;DHT22;41972;48.774;9.282;2023-08-12T14:31:50;26.00;99.90
2158;DHT22;41972;48.774;9.282;2023-08-12T14:34:16;26.20;99.90
2158;DHT22;41972;48.774;9.282;2023-08-12T14:36:41;26.40;99.90
2158;DHT22;41972;48.774;9.282;2023-08-12T14:39:07;26.30;99.90
2158;DHT22;41972;48.774;9.282;2023-08-12T14:41:33;26.40;99.90
2158;DHT22;41972;48.774;9.282;2023-08-12T14:43:59;26.20;99.90
2158;DHT22;41972;48.774;9.282;2023-08-12T14:46:24;26.30;99.90
2158;DHT22;41972;48.774;9.282;2023-08-12T14:48:50;26.60;99.90
2158;DHT22;41972;48.774;9.282;2023-08-12T14:51:16;26.40;99.90
2158;DHT22;41972;48.774;9.282;2023-08-12T14:53:41;26.30;99.90
2158;DHT22;41972;48.774;9.282;2023-08-12T14:56:07;26.00;99.90
2158;DHT22;41972;48.774;9.282;2023-08-12T14:58:33;25.80;99.90
2158;DHT22;41972;48.774;9.282;2023-08-12T15:00:58;25.80;99.90
2158;DHT22;41972;48.774;9.282;2023-08-12T15:03:26;25.70;99.90
2158;DHT22;41972;48.774;9.282;2023-08-12T15:05:59;25.80;99.90
2158;DHT22;41972;48.774;9.282;2023-08-12T15:08:25;25.80;99.90
2158;DHT22;41972;48.774;9.282;2023-08-12T15:10:50;25.90;99.90
2158;DHT22;41972;48.774;9.282;2023-08-12T15:13:16;26.00;99.90
2158;DHT22;41972;48.774;9.282;2023-08-12T15:15:45;25.90;99.90
2158;DHT22;41972;48.774;9.282;2023-08-12T15:18:11;25.90;99.90
2158;DHT22;41972;48.774;9.282;2023-08-12T15:20:37;26.00;99.90
2158;DHT22;41972;48.774;9.282;2023-08-12T15:23:03;26.10;99.90
2158;DHT22;41972;48.774;9.282;2023-08-12T15:25:28;26.10;99.90
2158;DHT22;41972;48.774;9.282;2023-08-12T15:27:54;26.00;99.90
2158;DHT22;41972;48.774;9.282;2023-08-12T15:30:19;25.90;99.90
2158;DHT22;41972;48.774;9.282;2023-08-12T15:32:45;25.90;99.90
2158;DHT22;41972;48.774;9.282;2023-08-12T15:35:11;25.80;99.90
2158;DHT22;41972;48.774;9.282;2023-08-12T15:37:37;25.60;99.90
2158;DHT22;41972;48.774;9.282;2023-08-12T15:40:03;25.40;99.90
2158;DHT22;41972;48.774;9.282;2023-08-12T15:42:28;25.30;99.90
2158;DHT22;41972;48.774;9.282;2023-08-12T15:44:54;25.20;99.90